FOOL Airport Information

Runway Information
Runway 16 Length 9844 ft width 148 ft
Elevation 29 ft Threshold 0 ft Heading 154
Runway 34 Length 9844 ft Width 148 ft
Elevation 28 ft Threshold 0 ft Heading 334
Airport Frequencies
Type A/G Name A/G VOICE Frequency 655.9 MHZ
Type RDO Name LIBREVILLE Frequency 666.6 MHZ
Type TWR Name TWR Frequency 118.7 MHZ
Airport Navaids
Type VOR-DME Name Libreville Frequency 112100 KHZ
Airport Weather Information & NOTAM
ADDS - METARS form results

(0931 UTC 29 May 2020)
Data provider http://aviationweather.gov/metar/data/
 
METAR text: FOOL 290930Z 17008KT 9999 FEW012 BKN023 28/24 Q1014 NOSIG
Conditions at: FOOL (LIBREVILLE/LEON , GA) observed 0930 UTC 29 May 2020
Temperature: 28.0°C (82°F)
Dewpoint: 24.0°C (75°F) [RH = 79%]
Pressure (altimeter): 29.94 inches Hg (1014.0 mb)
Winds: from the S (170 degrees) at 9 MPH (8 knots; 4.1 m/s)
Visibility: 6 or more miles (10+ km)
Ceiling: 2300 feet AGL
Clouds: few clouds at 1200 feet AGL
broken clouds at 2300 feet AGL
Weather: no significant weather observed at this time

METAR text: FOOL 290900Z 17008KT 9999 FEW012 BKN023 28/24 Q1014 NOSIG
Conditions at: FOOL (LIBREVILLE/LEON , GA) observed 0900 UTC 29 May 2020
Temperature: 28.0°C (82°F)
Dewpoint: 24.0°C (75°F) [RH = 79%]
Pressure (altimeter): 29.94 inches Hg (1014.0 mb)
Winds: from the S (170 degrees) at 9 MPH (8 knots; 4.1 m/s)
Visibility: 6 or more miles (10+ km)
Ceiling: 2300 feet AGL
Clouds: few clouds at 1200 feet AGL
broken clouds at 2300 feet AGL
Weather: no significant weather observed at this time

Forecast for: FOOL (LIBREVILLE/LEON , GA)
Text: TAF FOOL 290500Z 2906/3012 12005KT 9999 SCT010 BKN030
Forecast period: 0600 UTC 29 May 2020 to 1200 UTC 30 May 2020
Forecast type: FROM: standard forecast or significant change
Winds: from the ESE (120 degrees) at 6 MPH (5 knots; 2.6 m/s)
Visibility: 6 or more miles 10+ km)
Ceiling: 3000 feet AGL
Clouds: scattered clouds at 1000 feet AGL
broken clouds at 3000 feet AGL
Weather: no significant weather forecast for this period
Text: PROB30
Forecast period: 1500 to 2100 UTC 29 May 2020
Forecast type: TEMPORARY: The following changes expected for less than half the time period
Visibility: missing
Ceiling: 1200 feet AGL
Clouds: broken clouds at 1200 feet AGL
few clouds at 2000 feet AGL
Weather: TS  (thunderstorm)